logo
Search for airport 
image banner adimage banner adimage banner ad
image banner ad

MMHAQ - Triangulo Las Animas

Located in Puebla, Mexico

ICAO - , IATA -

Data provided by Airmate  

General information

Coordinates: N19°2'35" W98°14'3"
Elevation is 7170 feet MSL.
Magnetic variation is 3° East
View others Airports in Puebla

Operational data

Special qualification required
Current time UTC:
Current local time:
TAF: TAF AMD MMPB 250006Z 2500/2518 11010KT 3SM TSRA SCT008 SCT015CB FM250100 00000KT 5SM -RA SCT015 OVC080 TEMPO 2506/2508 2SM +RA FM251200 00000KT 2SM BR OVC008 TEMPO 2512/2514 1/2SM FG VV005
View NOTAMs / SUP AIP / TFR affecting this airport [VIEW]
Communications frequencies: [VIEW]

Runways:

Airport contact information

Address: Puebla Mexico

Satellite view of MMHAQ